Miami, FL

2:29 PM EDT on July 23, 2016 (GMT -0400)
JA Richmond West | | Change Station

Elev 7 ft 25.61 °N, 80.43 °W | Updated 8 seconds ago

Clear
Clear
99.1 °F
Feels Like 116 °F
N
6.9
Wind Variable Wind from NNE
Gusts 6.9 mph

Today
High -- | Low -- °F
--% Chance of Precip.
Yesterday
High -- | Low -- °F
Precip. -- in
Pressure 30.02 in
Visibility 10.0 miles
Clouds Clear
Heat Index 116 °F
Dew Point 77 °F
Humidity 50%
Rainfall 0.00 in
Snow Depth Not available.
6:44 AM 8:11 PM
Waning Gibbous, 83% visible
METAR KTMB 231753Z AUTO VRB06KT 10SM CLR 31/23 A3002 RMK AO2 SLP165 T03110228 10311 20233 58006 TSNO $
Pressure 30.02 in
Visibility 10.0 miles
Clouds Clear
Heat Index 116 °F
Dew Point 77 °F
Humidity 50%
Rainfall 0.00 in
Snow Depth Not available.
6:44 AM 8:11 PM
Waning Gibbous, 83% visible
METAR KTMB 231753Z AUTO VRB06KT 10SM CLR 31/23 A3002 RMK AO2 SLP165 T03110228 10311 20233 58006 TSNO $

10-Day Weather Forecast

Almanac

Astronomy

Jul. 23, 2016 Rise Set
Actual Time
Civil Twilight
Nautical Twilight
Astronomical Twilight
Moon
Length of Visible Light
Length of Day
Tomorrow will be .
, % of the Moon is Illuminated

Today's Extremes

State Highs State Lows

Community

WunderPhotos

Upload Photos

1,926,883 photos uploaded!

WunderBlog® & News

Nearby

Air Quality

  Air Quality AQ Index Pollutant
Not available.

Snow Depth

Station Depth Elevation

Earthquake Activity

City Distance Mag. Time & Date
Minimum magnitude displayed is 2.5.

Coastal Water Temperatures

Place Temperature

Stations

Nearby Weather Stations

Station Location Temp. Windchill Dew Point Humidity Wind Precip. Elev Updated Type
                   

Watches & Warnings

There are currently no watches in effect.